sensor_id;sensor_type;location;lat;lon;timestamp;P1;durP1;ratioP1;P2;durP2;ratioP2
3355;SDS011;1691;52.486;13.374;2024-02-28T00:02:12;14.70;;;10.10;;
3355;SDS011;1691;52.486;13.374;2024-02-28T00:04:39;17.53;;;11.00;;
3355;SDS011;1691;52.486;13.374;2024-02-28T00:07:08;19.07;;;11.40;;
3355;SDS011;1691;52.486;13.374;2024-02-28T00:09:35;21.53;;;11.93;;
3355;SDS011;1691;52.486;13.374;2024-02-28T00:12:02;17.73;;;11.77;;
3355;SDS011;1691;52.486;13.374;2024-02-28T00:14:29;19.13;;;10.57;;
3355;SDS011;1691;52.486;13.374;2024-02-28T00:16:56;14.93;;;10.30;;
3355;SDS011;1691;52.486;13.374;2024-02-28T00:19:23;21.80;;;11.83;;
3355;SDS011;1691;52.486;13.374;2024-02-28T00:21:51;21.10;;;11.93;;
3355;SDS011;1691;52.486;13.374;2024-02-28T00:24:18;24.13;;;12.27;;
3355;SDS011;1691;52.486;13.374;2024-02-28T00:26:45;18.90;;;11.50;;
3355;SDS011;1691;52.486;13.374;2024-02-28T00:29:12;19.93;;;11.60;;
3355;SDS011;1691;52.486;13.374;2024-02-28T00:31:39;20.03;;;11.63;;
3355;SDS011;1691;52.486;13.374;2024-02-28T00:34:06;19.23;;;12.83;;
3355;SDS011;1691;52.486;13.374;2024-02-28T00:36:35;37.30;;;17.47;;
3355;SDS011;1691;52.486;13.374;2024-02-28T00:39:17;34.33;;;14.50;;
3355;SDS011;1691;52.486;13.374;2024-02-28T00:41:44;31.27;;;15.27;;
3355;SDS011;1691;52.486;13.374;2024-02-28T00:44:11;27.90;;;15.27;;
3355;SDS011;1691;52.486;13.374;2024-02-28T00:46:39;26.17;;;15.17;;
3355;SDS011;1691;52.486;13.374;2024-02-28T00:49:06;31.77;;;15.70;;
3355;SDS011;1691;52.486;13.374;2024-02-28T00:51:33;24.00;;;15.03;;
3355;SDS011;1691;52.486;13.374;2024-02-28T00:54:02;35.50;;;16.30;;
3355;SDS011;1691;52.486;13.374;2024-02-28T00:56:30;29.40;;;14.90;;
3355;SDS011;1691;52.486;13.374;2024-02-28T00:58:57;29.73;;;15.73;;
3355;SDS011;1691;52.486;13.374;2024-02-28T01:01:24;32.23;;;16.37;;
3355;SDS011;1691;52.486;13.374;2024-02-28T01:03:51;27.17;;;14.80;;
3355;SDS011;1691;52.486;13.374;2024-02-28T01:06:18;28.53;;;15.00;;
3355;SDS011;1691;52.486;13.374;2024-02-28T01:08:45;40.30;;;15.10;;
3355;SDS011;1691;52.486;13.374;2024-02-28T01:11:12;25.13;;;14.27;;
3355;SDS011;1691;52.486;13.374;2024-02-28T01:13:39;28.13;;;15.70;;
3355;SDS011;1691;52.486;13.374;2024-02-28T01:16:06;41.53;;;18.13;;
3355;SDS011;1691;52.486;13.374;2024-02-28T01:18:33;31.33;;;17.50;;
3355;SDS011;1691;52.486;13.374;2024-02-28T01:21:00;37.23;;;17.23;;
3355;SDS011;1691;52.486;13.374;2024-02-28T01:23:27;35.10;;;18.07;;
3355;SDS011;1691;52.486;13.374;2024-02-28T01:25:54;69.83;;;14.50;;
3355;SDS011;1691;52.486;13.374;2024-02-28T01:28:21;27.03;;;15.13;;
3355;SDS011;1691;52.486;13.374;2024-02-28T01:30:48;29.83;;;13.37;;
3355;SDS011;1691;52.486;13.374;2024-02-28T01:33:15;32.80;;;15.43;;
3355;SDS011;1691;52.486;13.374;2024-02-28T01:35:42;29.30;;;13.73;;
3355;SDS011;1691;52.486;13.374;2024-02-28T01:38:09;24.77;;;13.20;;
3355;SDS011;1691;52.486;13.374;2024-02-28T01:40:36;31.77;;;16.73;;
3355;SDS011;1691;52.486;13.374;2024-02-28T01:43:03;31.40;;;16.50;;
3355;SDS011;1691;52.486;13.374;2024-02-28T01:45:33;30.30;;;16.40;;
3355;SDS011;1691;52.486;13.374;2024-02-28T01:48:00;34.13;;;16.33;;
3355;SDS011;1691;52.486;13.374;2024-02-28T01:50:28;32.63;;;16.73;;
3355;SDS011;1691;52.486;13.374;2024-02-28T01:52:55;31.13;;;16.03;;
3355;SDS011;1691;52.486;13.374;2024-02-28T01:55:22;33.97;;;17.13;;
3355;SDS011;1691;52.486;13.374;2024-02-28T01:57:49;39.93;;;17.80;;
3355;SDS011;1691;52.486;13.374;2024-02-28T02:00:18;33.00;;;16.43;;
3355;SDS011;1691;52.486;13.374;2024-02-28T02:02:47;33.20;;;16.97;;
3355;SDS011;1691;52.486;13.374;2024-02-28T02:05:14;33.67;;;17.73;;
3355;SDS011;1691;52.486;13.374;2024-02-28T02:07:42;30.40;;;15.73;;
3355;SDS011;1691;52.486;13.374;2024-02-28T02:10:09;26.07;;;13.63;;
3355;SDS011;1691;52.486;13.374;2024-02-28T02:12:38;18.70;;;11.73;;
3355;SDS011;1691;52.486;13.374;2024-02-28T02:15:05;32.57;;;13.77;;
3355;SDS011;1691;52.486;13.374;2024-02-28T02:17:33;20.93;;;12.50;;
3355;SDS011;1691;52.486;13.374;2024-02-28T02:20:00;16.90;;;11.17;;
3355;SDS011;1691;52.486;13.374;2024-02-28T02:25:05;23.30;;;11.30;;
3355;SDS011;1691;52.486;13.374;2024-02-28T02:27:33;17.33;;;11.20;;
3355;SDS011;1691;52.486;13.374;2024-02-28T02:30:00;17.73;;;10.57;;
3355;SDS011;1691;52.486;13.374;2024-02-28T02:32:27;17.00;;;10.80;;
3355;SDS011;1691;52.486;13.374;2024-02-28T02:34:55;18.70;;;10.53;;
3355;SDS011;1691;52.486;13.374;2024-02-28T02:37:22;13.73;;;9.13;;
3355;SDS011;1691;52.486;13.374;2024-02-28T02:39:49;13.60;;;10.13;;
3355;SDS011;1691;52.486;13.374;2024-02-28T02:42:16;18.07;;;10.23;;
3355;SDS011;1691;52.486;13.374;2024-02-28T02:44:43;20.67;;;10.27;;
3355;SDS011;1691;52.486;13.374;2024-02-28T02:47:10;14.43;;;8.80;;
3355;SDS011;1691;52.486;13.374;2024-02-28T02:49:37;16.10;;;9.87;;
3355;SDS011;1691;52.486;13.374;2024-02-28T02:52:04;11.60;;;8.40;;
3355;SDS011;1691;52.486;13.374;2024-02-28T02:54:32;10.23;;;7.47;;
3355;SDS011;1691;52.486;13.374;2024-02-28T02:56:59;9.67;;;7.23;;
3355;SDS011;1691;52.486;13.374;2024-02-28T02:59:26;11.10;;;7.63;;
3355;SDS011;1691;52.486;13.374;2024-02-28T03:01:52;9.43;;;7.20;;
3355;SDS011;1691;52.486;13.374;2024-02-28T03:04:21;9.50;;;7.50;;
3355;SDS011;1691;52.486;13.374;2024-02-28T03:06:47;11.30;;;7.57;;
3355;SDS011;1691;52.486;13.374;2024-02-28T03:09:15;13.40;;;9.00;;
3355;SDS011;1691;52.486;13.374;2024-02-28T03:11:42;10.90;;;8.23;;
3355;SDS011;1691;52.486;13.374;2024-02-28T03:14:09;12.57;;;7.77;;
3355;SDS011;1691;52.486;13.374;2024-02-28T03:16:40;14.10;;;8.40;;
3355;SDS011;1691;52.486;13.374;2024-02-28T03:19:11;11.43;;;8.77;;
3355;SDS011;1691;52.486;13.374;2024-02-28T03:21:38;14.93;;;8.27;;
3355;SDS011;1691;52.486;13.374;2024-02-28T03:24:05;8.53;;;6.17;;
3355;SDS011;1691;52.486;13.374;2024-02-28T03:26:32;11.87;;;7.20;;
3355;SDS011;1691;52.486;13.374;2024-02-28T03:28:59;11.53;;;6.93;;
3355;SDS011;1691;52.486;13.374;2024-02-28T03:31:26;9.83;;;7.70;;
3355;SDS011;1691;52.486;13.374;2024-02-28T03:33:54;7.60;;;6.70;;
3355;SDS011;1691;52.486;13.374;2024-02-28T03:36:21;10.90;;;7.37;;
3355;SDS011;1691;52.486;13.374;2024-02-28T03:38:48;7.67;;;6.80;;
3355;SDS011;1691;52.486;13.374;2024-02-28T03:41:15;7.27;;;6.57;;
3355;SDS011;1691;52.486;13.374;2024-02-28T03:43:42;7.00;;;6.40;;
3355;SDS011;1691;52.486;13.374;2024-02-28T03:46:09;7.07;;;6.13;;
3355;SDS011;1691;52.486;13.374;2024-02-28T03:48:36;7.50;;;6.80;;
3355;SDS011;1691;52.486;13.374;2024-02-28T03:51:03;8.70;;;6.93;;
3355;SDS011;1691;52.486;13.374;2024-02-28T03:53:30;9.00;;;5.87;;
3355;SDS011;1691;52.486;13.374;2024-02-28T03:55:58;7.87;;;5.57;;
3355;SDS011;1691;52.486;13.374;2024-02-28T03:58:25;12.30;;;6.27;;
3355;SDS011;1691;52.486;13.374;2024-02-28T04:00:52;6.80;;;6.10;;
3355;SDS011;1691;52.486;13.374;2024-02-28T04:03:19;7.83;;;5.40;;
3355;SDS011;1691;52.486;13.374;2024-02-28T04:05:46;6.40;;;5.90;;
3355;SDS011;1691;52.486;13.374;2024-02-28T04:08:13;6.13;;;5.57;;
3355;SDS011;1691;52.486;13.374;2024-02-28T04:10:40;11.07;;;6.53;;
3355;SDS011;1691;52.486;13.374;2024-02-28T04:13:07;8.23;;;5.73;;
3355;SDS011;1691;52.486;13.374;2024-02-28T04:15:35;6.83;;;6.37;;
3355;SDS011;1691;52.486;13.374;2024-02-28T04:18:04;9.97;;;5.83;;
3355;SDS011;1691;52.486;13.374;2024-02-28T04:20:31;6.93;;;6.43;;
3355;SDS011;1691;52.486;13.374;2024-02-28T04:22:58;6.60;;;6.10;;
3355;SDS011;1691;52.486;13.374;2024-02-28T04:25:25;6.03;;;5.43;;
3355;SDS011;1691;52.486;13.374;2024-02-28T04:27:52;7.47;;;5.67;;
3355;SDS011;1691;52.486;13.374;2024-02-28T04:30:19;6.73;;;6.10;;
3355;SDS011;1691;52.486;13.374;2024-02-28T04:32:46;5.70;;;5.10;;
3355;SDS011;1691;52.486;13.374;2024-02-28T04:35:13;6.03;;;5.43;;
3355;SDS011;1691;52.486;13.374;2024-02-28T04:37:45;8.27;;;6.47;;
3355;SDS011;1691;52.486;13.374;2024-02-28T04:40:12;5.10;;;4.70;;
3355;SDS011;1691;52.486;13.374;2024-02-28T04:42:40;5.07;;;4.60;;
3355;SDS011;1691;52.486;13.374;2024-02-28T04:45:08;5.10;;;4.70;;
3355;SDS011;1691;52.486;13.374;2024-02-28T04:47:36;5.73;;;5.03;;
3355;SDS011;1691;52.486;13.374;2024-02-28T04:50:10;5.50;;;4.57;;
3355;SDS011;1691;52.486;13.374;2024-02-28T04:52:37;6.50;;;5.50;;
3355;SDS011;1691;52.486;13.374;2024-02-28T04:55:04;4.90;;;4.50;;
3355;SDS011;1691;52.486;13.374;2024-02-28T04:57:31;5.37;;;5.03;;
3355;SDS011;1691;52.486;13.374;2024-02-28T04:59:58;5.10;;;4.70;;
3355;SDS011;1691;52.486;13.374;2024-02-28T05:02:25;4.67;;;4.33;;
3355;SDS011;1691;52.486;13.374;2024-02-28T05:04:52;4.43;;;4.23;;
3355;SDS011;1691;52.486;13.374;2024-02-28T05:07:19;6.10;;;5.13;;
3355;SDS011;1691;52.486;13.374;2024-02-28T05:09:46;6.43;;;5.00;;
3355;SDS011;1691;52.486;13.374;2024-02-28T05:12:13;5.40;;;4.90;;
3355;SDS011;1691;52.486;13.374;2024-02-28T05:14:40;4.77;;;4.47;;
3355;SDS011;1691;52.486;13.374;2024-02-28T05:17:07;10.77;;;4.57;;
3355;SDS011;1691;52.486;13.374;2024-02-28T05:19:34;5.07;;;4.63;;
3355;SDS011;1691;52.486;13.374;2024-02-28T05:22:02;5.40;;;5.00;;
3355;SDS011;1691;52.486;13.374;2024-02-28T05:25:41;5.60;;;5.20;;
3355;SDS011;1691;52.486;13.374;2024-02-28T06:19:20;24.50;;;15.07;;
3355;SDS011;1691;52.486;13.374;2024-02-28T08:09:37;10.90;;;7.27;;
3355;SDS011;1691;52.486;13.374;2024-02-28T08:12:04;13.63;;;6.10;;
3355;SDS011;1691;52.486;13.374;2024-02-28T08:14:31;5.90;;;5.50;;
3355;SDS011;1691;52.486;13.374;2024-02-28T08:16:58;6.57;;;5.97;;
3355;SDS011;1691;52.486;13.374;2024-02-28T08:19:25;5.43;;;5.03;;
3355;SDS011;1691;52.486;13.374;2024-02-28T08:21:52;6.57;;;6.10;;
3355;SDS011;1691;52.486;13.374;2024-02-28T08:24:19;6.60;;;6.10;;
3355;SDS011;1691;52.486;13.374;2024-02-28T08:26:46;10.27;;;6.80;;
3355;SDS011;1691;52.486;13.374;2024-02-28T08:29:13;17.20;;;11.07;;
3355;SDS011;1691;52.486;13.374;2024-02-28T08:31:41;8.40;;;7.20;;
3355;SDS011;1691;52.486;13.374;2024-02-28T08:34:10;6.83;;;6.30;;
3355;SDS011;1691;52.486;13.374;2024-02-28T08:36:37;7.10;;;5.63;;
3355;SDS011;1691;52.486;13.374;2024-02-28T08:39:04;6.30;;;5.80;;
3355;SDS011;1691;52.486;13.374;2024-02-28T08:41:33;8.73;;;5.10;;
3355;SDS011;1691;52.486;13.374;2024-02-28T08:44:00;5.70;;;5.20;;
3355;SDS011;1691;52.486;13.374;2024-02-28T08:46:27;6.07;;;5.57;;
3355;SDS011;1691;52.486;13.374;2024-02-28T08:48:54;6.27;;;5.77;;
3355;SDS011;1691;52.486;13.374;2024-02-28T08:51:21;7.43;;;4.93;;
3355;SDS011;1691;52.486;13.374;2024-02-28T08:53:48;5.93;;;5.47;;
3355;SDS011;1691;52.486;13.374;2024-02-28T08:56:15;7.00;;;6.30;;
3355;SDS011;1691;52.486;13.374;2024-02-28T08:58:42;10.40;;;5.67;;
3355;SDS011;1691;52.486;13.374;2024-02-28T09:01:14;6.37;;;5.87;;
3355;SDS011;1691;52.486;13.374;2024-02-28T09:03:42;9.13;;;5.97;;
3355;SDS011;1691;52.486;13.374;2024-02-28T09:06:09;7.43;;;6.57;;
3355;SDS011;1691;52.486;13.374;2024-02-28T09:08:36;21.77;;;6.60;;
3355;SDS011;1691;52.486;13.374;2024-02-28T09:11:03;7.17;;;6.43;;
3355;SDS011;1691;52.486;13.374;2024-02-28T09:13:31;13.67;;;9.30;;
3355;SDS011;1691;52.486;13.374;2024-02-28T09:15:58;14.40;;;10.40;;
3355;SDS011;1691;52.486;13.374;2024-02-28T09:18:26;13.00;;;9.27;;
3355;SDS011;1691;52.486;13.374;2024-02-28T09:20:53;10.90;;;9.17;;
3355;SDS011;1691;52.486;13.374;2024-02-28T09:23:20;11.53;;;8.60;;
3355;SDS011;1691;52.486;13.374;2024-02-28T09:25:47;10.50;;;9.40;;
3355;SDS011;1691;52.486;13.374;2024-02-28T09:28:14;13.50;;;9.50;;
3355;SDS011;1691;52.486;13.374;2024-02-28T09:30:42;13.03;;;8.97;;
3355;SDS011;1691;52.486;13.374;2024-02-28T09:33:18;12.87;;;9.13;;
3355;SDS011;1691;52.486;13.374;2024-02-28T09:35:46;11.63;;;9.70;;
3355;SDS011;1691;52.486;13.374;2024-02-28T09:38:13;10.03;;;8.00;;
3355;SDS011;1691;52.486;13.374;2024-02-28T09:40:40;19.30;;;10.37;;
3355;SDS011;1691;52.486;13.374;2024-02-28T09:43:11;14.20;;;9.80;;
3355;SDS011;1691;52.486;13.374;2024-02-28T09:46:01;13.47;;;10.17;;
3355;SDS011;1691;52.486;13.374;2024-02-28T09:48:33;17.40;;;11.47;;
3355;SDS011;1691;52.486;13.374;2024-02-28T09:51:00;14.73;;;11.27;;
3355;SDS011;1691;52.486;13.374;2024-02-28T09:53:27;14.80;;;10.40;;
3355;SDS011;1691;52.486;13.374;2024-02-28T09:55:54;17.70;;;11.10;;
3355;SDS011;1691;52.486;13.374;2024-02-28T09:58:21;21.50;;;10.50;;
3355;SDS011;1691;52.486;13.374;2024-02-28T10:00:50;13.20;;;10.50;;
3355;SDS011;1691;52.486;13.374;2024-02-28T10:03:18;15.80;;;11.27;;
3355;SDS011;1691;52.486;13.374;2024-02-28T10:05:49;17.17;;;11.23;;
3355;SDS011;1691;52.486;13.374;2024-02-28T10:08:16;16.93;;;11.17;;
3355;SDS011;1691;52.486;13.374;2024-02-28T10:10:47;19.23;;;12.50;;
3355;SDS011;1691;52.486;13.374;2024-02-28T10:13:17;12.60;;;10.10;;
3355;SDS011;1691;52.486;13.374;2024-02-28T10:15:44;18.07;;;12.00;;
3355;SDS011;1691;52.486;13.374;2024-02-28T10:18:12;15.30;;;12.07;;
3355;SDS011;1691;52.486;13.374;2024-02-28T10:20:39;18.43;;;12.40;;
3355;SDS011;1691;52.486;13.374;2024-02-28T10:23:06;26.53;;;11.53;;
3355;SDS011;1691;52.486;13.374;2024-02-28T10:25:41;15.57;;;11.70;;
3355;SDS011;1691;52.486;13.374;2024-02-28T10:28:22;14.20;;;10.20;;
3355;SDS011;1691;52.486;13.374;2024-02-28T10:30:50;18.30;;;11.23;;
3355;SDS011;1691;52.486;13.374;2024-02-28T10:33:18;18.23;;;11.30;;
3355;SDS011;1691;52.486;13.374;2024-02-28T10:35:46;27.30;;;14.83;;
3355;SDS011;1691;52.486;13.374;2024-02-28T10:38:18;20.17;;;13.13;;
3355;SDS011;1691;52.486;13.374;2024-02-28T10:40:45;18.07;;;11.97;;
3355;SDS011;1691;52.486;13.374;2024-02-28T10:43:15;20.00;;;12.93;;
3355;SDS011;1691;52.486;13.374;2024-02-28T10:45:44;18.13;;;11.37;;
3355;SDS011;1691;52.486;13.374;2024-02-28T10:48:32;14.73;;;10.53;;
3355;SDS011;1691;52.486;13.374;2024-02-28T10:50:59;25.07;;;14.17;;
3355;SDS011;1691;52.486;13.374;2024-02-28T10:53:36;21.23;;;11.50;;
3355;SDS011;1691;52.486;13.374;2024-02-28T10:56:05;20.73;;;12.20;;
3355;SDS011;1691;52.486;13.374;2024-02-28T10:58:42;24.07;;;13.90;;
3355;SDS011;1691;52.486;13.374;2024-02-28T11:01:18;20.00;;;13.53;;
3355;SDS011;1691;52.486;13.374;2024-02-28T11:03:47;17.17;;;13.07;;
3355;SDS011;1691;52.486;13.374;2024-02-28T11:06:17;18.20;;;11.53;;
3355;SDS011;1691;52.486;13.374;2024-02-28T11:08:46;20.33;;;11.10;;
3355;SDS011;1691;52.486;13.374;2024-02-28T11:11:15;18.10;;;12.07;;
3355;SDS011;1691;52.486;13.374;2024-02-28T11:13:56;17.83;;;11.47;;
3355;SDS011;1691;52.486;13.374;2024-02-28T11:18:55;17.90;;;12.00;;
3355;SDS011;1691;52.486;13.374;2024-02-28T11:21:27;19.13;;;12.73;;
3355;SDS011;1691;52.486;13.374;2024-02-28T11:23:59;29.40;;;12.43;;
3355;SDS011;1691;52.486;13.374;2024-02-28T11:26:27;16.20;;;11.90;;
3355;SDS011;1691;52.486;13.374;2024-02-28T11:28:54;14.27;;;11.70;;
3355;SDS011;1691;52.486;13.374;2024-02-28T11:31:22;19.17;;;11.87;;
3355;SDS011;1691;52.486;13.374;2024-02-28T11:33:49;26.03;;;12.73;;
3355;SDS011;1691;52.486;13.374;2024-02-28T11:36:16;18.63;;;12.70;;
3355;SDS011;1691;52.486;13.374;2024-02-28T11:38:43;20.50;;;12.33;;
3355;SDS011;1691;52.486;13.374;2024-02-28T11:41:10;21.33;;;12.87;;
3355;SDS011;1691;52.486;13.374;2024-02-28T11:43:38;19.77;;;13.40;;
3355;SDS011;1691;52.486;13.374;2024-02-28T11:46:17;13.70;;;11.07;;
3355;SDS011;1691;52.486;13.374;2024-02-28T11:48:45;16.33;;;12.53;;
3355;SDS011;1691;52.486;13.374;2024-02-28T11:51:12;18.93;;;10.87;;
3355;SDS011;1691;52.486;13.374;2024-02-28T11:53:39;14.30;;;11.27;;
3355;SDS011;1691;52.486;13.374;2024-02-28T11:56:07;12.10;;;10.80;;
3355;SDS011;1691;52.486;13.374;2024-02-28T11:58:36;14.47;;;11.73;;
3355;SDS011;1691;52.486;13.374;2024-02-28T12:01:03;13.20;;;9.60;;
3355;SDS011;1691;52.486;13.374;2024-02-28T12:03:31;41.47;;;23.73;;
3355;SDS011;1691;52.486;13.374;2024-02-28T12:05:58;20.73;;;14.20;;
3355;SDS011;1691;52.486;13.374;2024-02-28T12:08:26;17.27;;;11.80;;
3355;SDS011;1691;52.486;13.374;2024-02-28T12:11:05;15.53;;;11.20;;
3355;SDS011;1691;52.486;13.374;2024-02-28T12:13:37;13.90;;;9.97;;
3355;SDS011;1691;52.486;13.374;2024-02-28T12:16:04;13.07;;;9.90;;
3355;SDS011;1691;52.486;13.374;2024-02-28T12:18:31;14.67;;;9.50;;
3355;SDS011;1691;52.486;13.374;2024-02-28T12:20:58;12.27;;;9.63;;
3355;SDS011;1691;52.486;13.374;2024-02-28T12:23:25;16.03;;;10.50;;
3355;SDS011;1691;52.486;13.374;2024-02-28T12:25:53;13.43;;;10.43;;
3355;SDS011;1691;52.486;13.374;2024-02-28T12:28:19;13.80;;;9.50;;
3355;SDS011;1691;52.486;13.374;2024-02-28T12:30:47;13.47;;;9.87;;
3355;SDS011;1691;52.486;13.374;2024-02-28T12:33:15;10.53;;;9.17;;
3355;SDS011;1691;52.486;13.374;2024-02-28T12:35:42;14.73;;;10.57;;
3355;SDS011;1691;52.486;13.374;2024-02-28T12:38:09;11.97;;;9.20;;
3355;SDS011;1691;52.486;13.374;2024-02-28T12:40:36;16.30;;;10.20;;
3355;SDS011;1691;52.486;13.374;2024-02-28T12:43:03;11.60;;;8.50;;
3355;SDS011;1691;52.486;13.374;2024-02-28T12:45:30;13.23;;;10.23;;
3355;SDS011;1691;52.486;13.374;2024-02-28T12:47:58;12.87;;;9.77;;
3355;SDS011;1691;52.486;13.374;2024-02-28T12:50:27;15.40;;;9.60;;
3355;SDS011;1691;52.486;13.374;2024-02-28T12:52:54;11.50;;;9.90;;
3355;SDS011;1691;52.486;13.374;2024-02-28T12:55:21;43.47;;;25.10;;
3355;SDS011;1691;52.486;13.374;2024-02-28T12:57:48;32.20;;;18.37;;
3355;SDS011;1691;52.486;13.374;2024-02-28T13:00:15;15.13;;;10.77;;
3355;SDS011;1691;52.486;13.374;2024-02-28T13:02:44;14.00;;;9.70;;
3355;SDS011;1691;52.486;13.374;2024-02-28T13:05:11;13.30;;;10.93;;
3355;SDS011;1691;52.486;13.374;2024-02-28T13:07:39;12.47;;;10.13;;
3355;SDS011;1691;52.486;13.374;2024-02-28T13:10:06;11.07;;;9.30;;
3355;SDS011;1691;52.486;13.374;2024-02-28T13:12:35;14.93;;;9.43;;
3355;SDS011;1691;52.486;13.374;2024-02-28T13:15:05;13.20;;;9.80;;
3355;SDS011;1691;52.486;13.374;2024-02-28T13:17:34;14.30;;;10.73;;
3355;SDS011;1691;52.486;13.374;2024-02-28T13:20:01;15.20;;;9.77;;
3355;SDS011;1691;52.486;13.374;2024-02-28T13:22:29;24.03;;;10.43;;
3355;SDS011;1691;52.486;13.374;2024-02-28T13:24:56;12.67;;;9.03;;
3355;SDS011;1691;52.486;13.374;2024-02-28T13:27:23;11.33;;;10.10;;
3355;SDS011;1691;52.486;13.374;2024-02-28T13:29:50;12.03;;;9.80;;
3355;SDS011;1691;52.486;13.374;2024-02-28T13:32:17;12.93;;;9.60;;
3355;SDS011;1691;52.486;13.374;2024-02-28T13:34:45;10.47;;;8.97;;
3355;SDS011;1691;52.486;13.374;2024-02-28T13:37:15;10.60;;;8.97;;
3355;SDS011;1691;52.486;13.374;2024-02-28T13:39:42;13.63;;;9.37;;
3355;SDS011;1691;52.486;13.374;2024-02-28T13:42:09;17.27;;;10.07;;
3355;SDS011;1691;52.486;13.374;2024-02-28T13:44:37;14.07;;;10.47;;
3355;SDS011;1691;52.486;13.374;2024-02-28T13:47:04;13.80;;;10.83;;
3355;SDS011;1691;52.486;13.374;2024-02-28T13:49:32;11.20;;;9.63;;
3355;SDS011;1691;52.486;13.374;2024-02-28T13:51:59;14.23;;;10.90;;
3355;SDS011;1691;52.486;13.374;2024-02-28T13:54:26;15.50;;;9.97;;
3355;SDS011;1691;52.486;13.374;2024-02-28T13:56:53;16.50;;;10.90;;
3355;SDS011;1691;52.486;13.374;2024-02-28T13:59:20;13.07;;;9.97;;
3355;SDS011;1691;52.486;13.374;2024-02-28T14:01:47;14.13;;;9.73;;
3355;SDS011;1691;52.486;13.374;2024-02-28T14:04:15;8.97;;;8.13;;
3355;SDS011;1691;52.486;13.374;2024-02-28T14:06:42;10.40;;;7.97;;
3355;SDS011;1691;52.486;13.374;2024-02-28T14:38:47;9.47;;;8.47;;
3355;SDS011;1691;52.486;13.374;2024-02-28T14:41:14;12.73;;;8.90;;
3355;SDS011;1691;52.486;13.374;2024-02-28T14:43:41;9.67;;;8.47;;
3355;SDS011;1691;52.486;13.374;2024-02-28T14:46:08;9.43;;;8.33;;
3355;SDS011;1691;52.486;13.374;2024-02-28T14:48:37;10.63;;;7.63;;
3355;SDS011;1691;52.486;13.374;2024-02-28T14:51:04;12.33;;;8.37;;
3355;SDS011;1691;52.486;13.374;2024-02-28T14:53:32;10.60;;;8.70;;
3355;SDS011;1691;52.486;13.374;2024-02-28T14:55:59;8.70;;;7.90;;
3355;SDS011;1691;52.486;13.374;2024-02-28T14:58:26;14.83;;;10.50;;
3355;SDS011;1691;52.486;13.374;2024-02-28T15:00:53;9.17;;;8.33;;
3355;SDS011;1691;52.486;13.374;2024-02-28T15:03:24;14.60;;;8.67;;
3355;SDS011;1691;52.486;13.374;2024-02-28T15:05:51;11.40;;;8.30;;
3355;SDS011;1691;52.486;13.374;2024-02-28T15:08:18;9.17;;;8.23;;
3355;SDS011;1691;52.486;13.374;2024-02-28T15:10:46;11.63;;;8.10;;
3355;SDS011;1691;52.486;13.374;2024-02-28T15:13:13;12.87;;;9.70;;
3355;SDS011;1691;52.486;13.374;2024-02-28T15:15:40;12.23;;;8.70;;
3355;SDS011;1691;52.486;13.374;2024-02-28T15:18:08;11.50;;;8.53;;
3355;SDS011;1691;52.486;13.374;2024-02-28T15:20:35;12.20;;;8.67;;
3355;SDS011;1691;52.486;13.374;2024-02-28T15:23:02;11.40;;;8.40;;
3355;SDS011;1691;52.486;13.374;2024-02-28T15:25:30;11.30;;;8.20;;
3355;SDS011;1691;52.486;13.374;2024-02-28T15:27:57;8.27;;;7.43;;
3355;SDS011;1691;52.486;13.374;2024-02-28T15:30:24;28.53;;;16.53;;
3355;SDS011;1691;52.486;13.374;2024-02-28T15:32:51;12.53;;;7.77;;
3355;SDS011;1691;52.486;13.374;2024-02-28T15:35:18;9.10;;;8.13;;
3355;SDS011;1691;52.486;13.374;2024-02-28T15:37:47;10.50;;;9.03;;
3355;SDS011;1691;52.486;13.374;2024-02-28T15:40:14;9.33;;;7.60;;
3355;SDS011;1691;52.486;13.374;2024-02-28T15:42:42;7.80;;;7.07;;
3355;SDS011;1691;52.486;13.374;2024-02-28T15:45:09;11.43;;;8.33;;
3355;SDS011;1691;52.486;13.374;2024-02-28T15:47:36;16.10;;;8.90;;
3355;SDS011;1691;52.486;13.374;2024-02-28T15:50:03;31.77;;;8.60;;
3355;SDS011;1691;52.486;13.374;2024-02-28T15:52:34;11.90;;;9.73;;
3355;SDS011;1691;52.486;13.374;2024-02-28T15:55:01;23.83;;;11.30;;
3355;SDS011;1691;52.486;13.374;2024-02-28T15:57:30;16.20;;;10.27;;
3355;SDS011;1691;52.486;13.374;2024-02-28T15:59:57;10.33;;;8.30;;
3355;SDS011;1691;52.486;13.374;2024-02-28T16:02:24;11.67;;;8.70;;
3355;SDS011;1691;52.486;13.374;2024-02-28T16:04:51;9.20;;;7.60;;
3355;SDS011;1691;52.486;13.374;2024-02-28T16:07:18;9.17;;;8.20;;
3355;SDS011;1691;52.486;13.374;2024-02-28T16:09:45;10.13;;;8.40;;
3355;SDS011;1691;52.486;13.374;2024-02-28T16:12:12;11.17;;;7.97;;
3355;SDS011;1691;52.486;13.374;2024-02-28T16:14:39;7.97;;;7.27;;
3355;SDS011;1691;52.486;13.374;2024-02-28T16:17:06;8.57;;;7.67;;
3355;SDS011;1691;52.486;13.374;2024-02-28T16:19:33;10.50;;;7.80;;
3355;SDS011;1691;52.486;13.374;2024-02-28T16:22:01;16.13;;;8.90;;
3355;SDS011;1691;52.486;13.374;2024-02-28T16:24:28;8.83;;;7.90;;
3355;SDS011;1691;52.486;13.374;2024-02-28T16:26:55;10.73;;;8.77;;
3355;SDS011;1691;52.486;13.374;2024-02-28T16:29:22;11.77;;;8.40;;
3355;SDS011;1691;52.486;13.374;2024-02-28T16:31:49;8.43;;;7.30;;
3355;SDS011;1691;52.486;13.374;2024-02-28T16:34:17;9.20;;;7.70;;
3355;SDS011;1691;52.486;13.374;2024-02-28T16:36:46;13.67;;;8.47;;
3355;SDS011;1691;52.486;13.374;2024-02-28T16:39:14;15.57;;;9.40;;
3355;SDS011;1691;52.486;13.374;2024-02-28T16:41:42;13.10;;;8.73;;
3355;SDS011;1691;52.486;13.374;2024-02-28T16:44:09;12.73;;;8.10;;
3355;SDS011;1691;52.486;13.374;2024-02-28T16:46:36;9.80;;;8.70;;
3355;SDS011;1691;52.486;13.374;2024-02-28T16:49:03;17.50;;;9.70;;
3355;SDS011;1691;52.486;13.374;2024-02-28T16:51:30;13.40;;;9.10;;
3355;SDS011;1691;52.486;13.374;2024-02-28T16:53:58;13.90;;;9.00;;
3355;SDS011;1691;52.486;13.374;2024-02-28T16:56:25;10.90;;;8.00;;
3355;SDS011;1691;52.486;13.374;2024-02-28T16:58:52;11.10;;;8.83;;
3355;SDS011;1691;52.486;13.374;2024-02-28T17:01:19;15.47;;;9.90;;
3355;SDS011;1691;52.486;13.374;2024-02-28T17:03:50;10.47;;;9.30;;
3355;SDS011;1691;52.486;13.374;2024-02-28T17:06:17;14.27;;;9.13;;
3355;SDS011;1691;52.486;13.374;2024-02-28T17:08:44;18.27;;;10.00;;
3355;SDS011;1691;52.486;13.374;2024-02-28T17:11:11;13.90;;;9.37;;
3355;SDS011;1691;52.486;13.374;2024-02-28T17:13:39;14.63;;;9.40;;
3355;SDS011;1691;52.486;13.374;2024-02-28T17:16:06;14.57;;;9.43;;
3355;SDS011;1691;52.486;13.374;2024-02-28T17:18:33;11.67;;;9.50;;
3355;SDS011;1691;52.486;13.374;2024-02-28T17:21:00;12.87;;;9.60;;
3355;SDS011;1691;52.486;13.374;2024-02-28T17:23:27;11.80;;;9.57;;
3355;SDS011;1691;52.486;13.374;2024-02-28T17:25:54;14.27;;;10.30;;
3355;SDS011;1691;52.486;13.374;2024-02-28T17:28:22;15.47;;;10.00;;
3355;SDS011;1691;52.486;13.374;2024-02-28T17:30:49;15.40;;;9.97;;
3355;SDS011;1691;52.486;13.374;2024-02-28T17:33:16;19.13;;;10.57;;
3355;SDS011;1691;52.486;13.374;2024-02-28T17:35:44;15.87;;;11.03;;
3355;SDS011;1691;52.486;13.374;2024-02-28T17:38:11;16.63;;;11.17;;
3355;SDS011;1691;52.486;13.374;2024-02-28T17:40:38;12.77;;;9.80;;
3355;SDS011;1691;52.486;13.374;2024-02-28T17:43:05;14.30;;;10.40;;
3355;SDS011;1691;52.486;13.374;2024-02-28T17:45:32;17.70;;;10.63;;
3355;SDS011;1691;52.486;13.374;2024-02-28T17:47:59;13.60;;;10.37;;
3355;SDS011;1691;52.486;13.374;2024-02-28T17:50:26;16.10;;;11.37;;
3355;SDS011;1691;52.486;13.374;2024-02-28T17:52:54;18.07;;;11.67;;
3355;SDS011;1691;52.486;13.374;2024-02-28T17:55:21;17.60;;;11.93;;
3355;SDS011;1691;52.486;13.374;2024-02-28T17:57:48;18.17;;;11.60;;
3355;SDS011;1691;52.486;13.374;2024-02-28T18:00:17;15.37;;;11.53;;
3355;SDS011;1691;52.486;13.374;2024-02-28T18:02:50;19.83;;;13.00;;
3355;SDS011;1691;52.486;13.374;2024-02-28T18:05:19;19.30;;;12.40;;